Time;durP1;ratioP1;P1;durP2;ratioP2;P2;SDS_P1;SDS_P2;PMS_P1;PMS_P2;Temp;Humidity;BMP_temperature;BMP_pressure;BME280_temperature;BME280_humidity;BME280_pressure;Samples;Min_cycle;Max_cycle;Signal;HPM_P1;HPM_P2
2021/03/13 00:01:56;;;;;;;7.70;2.50;;;;;;;5.39;100.00;99267.34;5202243;28;20052;-77
2021/03/13 00:04:26;;;;;;;7.95;2.88;;;;;;;5.27;100.00;99267.78;5205877;28;20026;-76
2021/03/13 00:06:57;;;;;;;6.95;2.95;;;;;;;5.22;100.00;99269.69;5207036;28;20034;-76
2021/03/13 00:09:27;;;;;;;8.20;3.22;;;;;;;5.32;100.00;99265.84;5201176;28;20099;-76
2021/03/13 00:11:57;;;;;;;7.80;2.80;;;;;;;5.42;100.00;99262.06;5198276;28;20029;-77
2021/03/13 00:14:27;;;;;;;6.82;3.10;;;;;;;5.38;100.00;99260.47;5202393;28;20033;-77
2021/03/13 00:16:58;;;;;;;6.68;2.95;;;;;;;5.35;100.00;99270.91;5209491;28;20532;-76
2021/03/13 00:19:28;;;;;;;8.30;3.03;;;;;;;5.52;100.00;99273.75;5200692;28;20029;-77
2021/03/13 00:21:58;;;;;;;6.57;2.92;;;;;;;5.46;100.00;99274.00;5197773;28;20018;-76
2021/03/13 00:24:28;;;;;;;8.77;2.88;;;;;;;5.46;100.00;99276.56;5198370;28;20029;-76
2021/03/13 00:26:59;;;;;;;6.60;2.63;;;;;;;5.38;100.00;99266.50;5209930;28;20516;-77
2021/03/13 00:29:29;;;;;;;5.93;2.75;;;;;;;5.27;100.00;99265.19;5199798;28;20533;-77
2021/03/13 00:32:00;;;;;;;7.28;2.78;;;;;;;5.29;100.00;99265.13;5203000;28;20033;-77
2021/03/13 00:34:30;;;;;;;9.70;3.15;;;;;;;5.29;100.00;99260.78;5210209;28;20047;-77
2021/03/13 00:37:00;;;;;;;5.90;2.60;;;;;;;5.23;100.00;99260.16;5185566;28;20492;-76
2021/03/13 00:39:31;;;;;;;7.40;2.92;;;;;;;5.21;100.00;99259.38;5207856;28;20124;-76
2021/03/13 00:42:01;;;;;;;8.48;2.80;;;;;;;5.22;100.00;99256.75;5208331;28;20101;-76
2021/03/13 00:44:31;;;;;;;4.90;2.70;;;;;;;5.12;100.00;99251.94;5207638;28;20025;-76
2021/03/13 00:47:02;;;;;;;6.57;2.40;;;;;;;5.09;100.00;99252.88;5206123;28;20036;-76
2021/03/13 00:49:32;;;;;;;8.82;2.70;;;;;;;5.14;100.00;99258.72;5206541;28;20021;-76
2021/03/13 00:52:02;;;;;;;9.30;2.70;;;;;;;5.00;100.00;99253.19;5212033;28;20368;-76
2021/03/13 00:54:32;;;;;;;6.72;2.72;;;;;;;5.02;100.00;99246.25;5207548;28;20048;-76
2021/03/13 00:57:03;;;;;;;5.03;2.55;;;;;;;4.93;100.00;99243.94;5203592;28;20033;-76
2021/03/13 00:59:33;;;;;;;7.60;2.45;;;;;;;4.77;100.00;99245.38;5211525;28;20503;-76
2021/03/13 01:02:04;;;;;;;11.05;2.67;;;;;;;4.88;100.00;99237.22;5194974;28;20021;-76
2021/03/13 01:04:34;;;;;;;10.43;2.67;;;;;;;4.71;100.00;99237.81;5208021;28;20040;-76
2021/03/13 01:07:04;;;;;;;7.55;2.60;;;;;;;4.86;100.00;99224.38;5204935;28;20055;-76
2021/03/13 01:09:36;;;;;;;6.78;2.70;;;;;;;4.80;100.00;99224.56;5209842;28;20032;-76
2021/03/13 01:12:06;;;;;;;7.75;2.80;;;;;;;4.84;100.00;99226.13;5214025;28;20045;-76
2021/03/13 01:14:37;;;;;;;11.90;3.25;;;;;;;4.82;100.00;99220.16;5212693;28;20383;-76
2021/03/13 01:17:07;;;;;;;8.23;2.50;;;;;;;4.83;100.00;99224.44;5219606;28;21062;-76
2021/03/13 01:19:38;;;;;;;7.50;2.58;;;;;;;4.76;100.00;99215.22;5210442;28;20025;-76
2021/03/13 01:22:08;;;;;;;7.68;2.47;;;;;;;4.72;100.00;99213.63;5211844;28;20021;-75
2021/03/13 01:24:40;;;;;;;6.70;2.70;;;;;;;4.77;100.00;99206.56;5208050;28;20037;-76
2021/03/13 01:27:11;;;;;;;6.18;2.50;;;;;;;4.76;100.00;99216.94;5210583;28;20021;-76
2021/03/13 01:29:41;;;;;;;6.97;2.80;;;;;;;4.89;100.00;99213.03;5205743;28;20022;-76
2021/03/13 01:32:11;;;;;;;12.35;4.28;;;;;;;4.91;100.00;99212.09;5196688;28;20372;-76
2021/03/13 01:34:43;;;;;;;7.15;2.40;;;;;;;4.89;100.00;99216.50;5205909;28;20040;-76
2021/03/13 01:37:15;;;;;;;6.13;1.92;;;;;;;4.94;100.00;99208.59;5206513;28;20053;-75
2021/03/13 01:39:45;;;;;;;7.85;2.25;;;;;;;4.96;100.00;99199.84;5197846;28;20038;-76
2021/03/13 01:42:16;;;;;;;4.05;1.98;;;;;;;4.95;100.00;99192.97;5201308;28;20017;-76
2021/03/13 01:44:46;;;;;;;7.68;2.28;;;;;;;4.93;100.00;99184.41;5208701;28;20033;-77
2021/03/13 01:47:21;;;;;;;5.72;2.03;;;;;;;4.97;100.00;99191.19;5208999;28;20040;-76
2021/03/13 01:49:52;;;;;;;5.45;2.10;;;;;;;5.04;100.00;99182.31;5199838;28;20037;-76
2021/03/13 01:52:23;;;;;;;6.88;2.30;;;;;;;4.99;100.00;99184.19;5204219;28;20383;-76
2021/03/13 01:54:53;;;;;;;5.28;2.30;;;;;;;5.02;100.00;99178.06;5212018;28;20043;-76
2021/03/13 01:57:25;;;;;;;6.30;2.15;;;;;;;5.02;100.00;99189.28;5219581;28;20017;-76
2021/03/13 01:59:55;;;;;;;7.60;2.33;;;;;;;4.91;100.00;99181.06;5212054;28;20113;-76
2021/03/13 02:02:25;;;;;;;6.93;2.40;;;;;;;4.97;100.00;99186.00;5206220;28;20100;-75
2021/03/13 02:04:55;;;;;;;7.30;2.33;;;;;;;4.88;100.00;99181.16;5207027;28;20505;-76
2021/03/13 02:07:33;;;;;;;6.78;2.53;;;;;;;4.96;100.00;99178.31;5206296;28;20387;-76
2021/03/13 02:10:12;;;;;;;6.95;2.25;;;;;;;4.93;100.00;99175.81;5209074;28;20395;-76
2021/03/13 02:13:01;;;;;;;6.63;2.33;;;;;;;4.94;100.00;99164.59;5212251;28;20098;-76
2021/03/13 02:15:48;;;;;;;5.25;2.17;;;;;;;4.95;100.00;99164.50;5193109;28;20025;-76
2021/03/13 02:18:24;;;;;;;8.48;2.30;;;;;;;4.94;100.00;99155.06;5202880;28;20057;-76
2021/03/13 02:21:10;;;;;;;6.25;2.00;;;;;;;5.06;100.00;99157.22;5209550;28;20031;-75
2021/03/13 02:24:22;;;;;;;6.28;2.00;;;;;;;5.13;100.00;99153.47;5210615;28;20387;-76
2021/03/13 02:27:04;;;;;;;7.13;2.20;;;;;;;5.24;100.00;99146.19;5168340;28;20045;-76
2021/03/13 02:29:42;;;;;;;5.05;1.80;;;;;;;5.37;100.00;99143.97;5206681;28;20079;-76
2021/03/13 02:32:22;;;;;;;6.93;1.85;;;;;;;5.40;100.00;99147.28;5203466;28;20117;-76
2021/03/13 02:35:00;;;;;;;6.53;1.90;;;;;;;5.48;100.00;99145.25;5203708;28;20410;-76
2021/03/13 02:37:34;;;;;;;7.05;1.80;;;;;;;5.59;100.00;99145.69;5191143;28;20025;-76
2021/03/13 02:40:07;;;;;;;7.97;2.20;;;;;;;5.66;100.00;99136.75;5206408;28;20032;-76
2021/03/13 02:42:47;;;;;;;4.07;1.70;;;;;;;5.63;100.00;99148.13;5218774;28;20067;-76
2021/03/13 02:48:46;;;;;;;4.97;1.42;;;;;;;5.81;100.00;99131.03;5206863;28;20044;-76
2021/03/13 02:51:19;;;;;;;4.57;1.70;;;;;;;5.84;100.00;99120.53;5206118;28;20104;-76
2021/03/13 02:53:50;;;;;;;7.60;1.80;;;;;;;5.83;100.00;99116.25;5194177;28;20156;-76
2021/03/13 02:56:22;;;;;;;5.60;1.85;;;;;;;5.90;100.00;99105.56;5203054;28;20108;-76
2021/03/13 02:58:56;;;;;;;4.57;1.73;;;;;;;5.93;100.00;99104.63;5203156;28;20041;-76
2021/03/13 03:01:28;;;;;;;5.10;1.67;;;;;;;5.92;100.00;99101.16;5198364;28;20581;-76
2021/03/13 03:03:59;;;;;;;5.13;1.63;;;;;;;5.92;100.00;99103.75;5206442;28;20583;-76
2021/03/13 03:06:36;;;;;;;4.22;1.77;;;;;;;5.95;100.00;99100.22;5214445;28;20047;-76
2021/03/13 03:09:07;;;;;;;3.28;1.60;;;;;;;5.89;100.00;99092.69;5202135;28;20117;-76
2021/03/13 03:11:44;;;;;;;5.53;1.67;;;;;;;5.94;100.00;99095.94;5202105;28;20025;-76
2021/03/13 03:14:17;;;;;;;6.32;1.70;;;;;;;5.97;100.00;99086.28;5184472;28;20037;-76
2021/03/13 03:16:51;;;;;;;6.25;1.50;;;;;;;5.98;100.00;99081.94;5208590;28;20067;-76
2021/03/13 03:19:22;;;;;;;4.47;1.60;;;;;;;6.03;100.00;99083.44;5214246;28;20025;-76
2021/03/13 03:21:54;;;;;;;4.97;1.77;;;;;;;5.97;100.00;99078.50;5202864;28;20055;-76
2021/03/13 03:24:24;;;;;;;9.20;2.10;;;;;;;6.00;100.00;99080.97;5201652;28;20135;-76
2021/03/13 03:26:54;;;;;;;7.38;1.77;;;;;;;6.09;100.00;99075.38;5202424;28;20120;-76
2021/03/13 03:29:26;;;;;;;6.85;1.77;;;;;;;5.97;100.00;99073.34;5202137;28;20051;-76
2021/03/13 03:31:56;;;;;;;4.18;1.25;;;;;;;5.96;100.00;99069.06;5201431;28;20025;-76
2021/03/13 03:34:27;;;;;;;8.10;1.70;;;;;;;5.92;100.00;99064.88;5201365;28;20059;-76
2021/03/13 03:36:57;;;;;;;4.80;1.55;;;;;;;5.96;100.00;99055.22;5206932;28;20021;-76
2021/03/13 03:39:28;;;;;;;7.38;1.58;;;;;;;5.93;100.00;99063.13;5217733;28;20493;-76
2021/03/13 03:42:01;;;;;;;4.53;1.33;;;;;;;5.93;100.00;99052.78;5200912;28;20025;-76
2021/03/13 03:44:42;;;;;;;7.13;1.55;;;;;;;5.94;100.00;99049.28;5201590;28;20437;-76
2021/03/13 03:47:13;;;;;;;6.13;1.50;;;;;;;5.96;100.00;99042.28;5201937;28;20499;-76
2021/03/13 03:49:45;;;;;;;5.47;1.20;;;;;;;5.90;100.00;99042.53;5201535;28;20041;-76
2021/03/13 03:52:16;;;;;;;3.58;1.10;;;;;;;5.85;100.00;99040.13;5200915;28;20055;-76
2021/03/13 03:54:48;;;;;;;7.40;1.70;;;;;;;5.80;100.00;99044.66;5203584;28;20021;-76
2021/03/13 03:57:20;;;;;;;4.90;1.30;;;;;;;5.95;100.00;99035.41;5209706;28;20022;-77
2021/03/13 03:59:51;;;;;;;5.53;1.52;;;;;;;5.97;100.00;99043.94;5207987;28;20040;-76
2021/03/13 04:02:23;;;;;;;6.70;1.50;;;;;;;5.91;100.00;99039.03;5202447;28;20037;-76
2021/03/13 04:04:55;;;;;;;4.78;1.20;;;;;;;5.84;100.00;99035.00;5201714;28;20049;-76
2021/03/13 04:07:25;;;;;;;4.30;1.20;;;;;;;5.88;100.00;99026.22;5201379;28;20612;-76
2021/03/13 04:09:57;;;;;;;3.75;1.10;;;;;;;5.86;100.00;99018.47;5204322;28;20075;-77
2021/03/13 04:12:28;;;;;;;7.00;1.50;;;;;;;5.82;100.00;99016.06;5211723;28;20709;-76
2021/03/13 04:14:59;;;;;;;6.38;1.48;;;;;;;5.82;100.00;99013.47;5207751;28;20083;-76
2021/03/13 04:17:31;;;;;;;4.63;1.40;;;;;;;5.90;100.00;99016.63;5201626;28;20509;-76
2021/03/13 04:20:04;;;;;;;5.57;1.15;;;;;;;6.01;99.83;99004.03;5201825;28;20033;-76
2021/03/13 04:22:36;;;;;;;5.95;1.45;;;;;;;5.94;100.00;99007.78;5200432;28;20025;-77
2021/03/13 04:25:07;;;;;;;5.15;1.38;;;;;;;6.02;100.00;99003.13;5201212;28;20025;-76
2021/03/13 04:27:44;;;;;;;5.53;1.40;;;;;;;5.99;100.00;98995.47;5207447;28;20392;-76
2021/03/13 04:30:16;;;;;;;4.65;1.33;;;;;;;6.11;100.00;98989.78;5212333;28;20052;-76
2021/03/13 04:32:52;;;;;;;5.72;1.30;;;;;;;6.08;100.00;98974.34;5208344;28;20531;-76
2021/03/13 04:35:23;;;;;;;6.45;1.80;;;;;;;6.06;100.00;98978.75;5201395;28;20365;-76
2021/03/13 04:37:55;;;;;;;2.95;1.30;;;;;;;6.16;100.00;98969.66;5201265;28;20142;-76
2021/03/13 04:40:26;;;;;;;5.55;1.40;;;;;;;6.21;100.00;98963.38;5201129;28;20029;-76
2021/03/13 04:42:57;;;;;;;5.05;1.40;;;;;;;6.10;100.00;98965.56;5201263;28;20034;-76
2021/03/13 04:45:28;;;;;;;5.10;1.30;;;;;;;6.21;100.00;98957.31;5201059;28;20044;-76
2021/03/13 04:48:00;;;;;;;5.80;1.48;;;;;;;6.21;100.00;98955.59;5201453;28;20029;-76
2021/03/13 04:50:30;;;;;;;7.43;1.42;;;;;;;6.29;99.48;98940.53;5200883;28;20025;-76
2021/03/13 04:53:01;;;;;;;4.47;1.35;;;;;;;6.31;99.13;98932.69;5201494;28;20049;-76
2021/03/13 04:55:31;;;;;;;7.38;1.30;;;;;;;6.26;100.00;98934.66;5200697;28;20036;-76
2021/03/13 04:58:01;;;;;;;6.30;1.48;;;;;;;6.26;99.78;98926.88;5201583;28;20029;-77
2021/03/13 05:00:32;;;;;;;3.30;1.25;;;;;;;6.31;100.00;98924.91;5183625;28;20152;-76
2021/03/13 05:03:03;;;;;;;6.28;1.33;;;;;;;6.28;100.00;98923.28;5201262;28;20021;-76
2021/03/13 05:05:33;;;;;;;4.22;1.40;;;;;;;6.27;100.00;98921.59;5201341;28;20037;-76
2021/03/13 05:08:03;;;;;;;5.53;1.60;;;;;;;6.36;99.83;98912.56;5200701;28;20419;-76
2021/03/13 05:10:35;;;;;;;3.92;1.55;;;;;;;6.29;100.00;98916.34;5201005;28;20511;-76
2021/03/13 05:13:05;;;;;;;3.60;1.50;;;;;;;6.33;99.85;98902.31;5213367;28;20041;-76
2021/03/13 05:15:35;;;;;;;3.28;1.60;;;;;;;6.27;100.00;98906.03;5219201;28;20029;-76
2021/03/13 05:18:06;;;;;;;6.72;1.80;;;;;;;6.37;99.82;98904.72;5201243;28;20626;-76
2021/03/13 05:20:36;;;;;;;5.32;1.77;;;;;;;6.37;99.70;98901.28;5212434;28;20025;-76
2021/03/13 05:23:06;;;;;;;4.47;1.90;;;;;;;6.40;98.57;98889.00;5210731;28;20479;-76
2021/03/13 05:25:36;;;;;;;5.28;1.90;;;;;;;6.38;99.17;98888.25;5201042;28;20029;-76
2021/03/13 05:28:07;;;;;;;3.78;1.73;;;;;;;6.43;99.92;98888.84;5200891;28;20517;-76
2021/03/13 05:30:37;;;;;;;4.47;1.88;;;;;;;6.51;99.31;98880.72;5200652;28;20033;-76
2021/03/13 05:33:07;;;;;;;6.10;2.10;;;;;;;6.57;98.67;98870.09;5201888;28;20043;-76
2021/03/13 05:35:39;;;;;;;4.03;2.00;;;;;;;6.53;99.05;98874.56;5186746;28;20025;-76
2021/03/13 05:38:09;;;;;;;5.32;2.00;;;;;;;6.58;99.64;98871.75;5204209;28;20106;-76
2021/03/13 05:40:40;;;;;;;4.78;2.00;;;;;;;6.50;100.00;98850.50;5204810;28;20025;-76
2021/03/13 05:43:13;;;;;;;4.53;1.98;;;;;;;6.59;100.00;98847.50;5204491;28;20065;-76
2021/03/13 05:45:46;;;;;;;4.72;1.88;;;;;;;6.51;100.00;98839.22;5204505;28;20499;-76
2021/03/13 05:48:18;;;;;;;4.38;1.80;;;;;;;6.50;100.00;98837.53;5204072;28;20479;-76
2021/03/13 05:50:48;;;;;;;3.65;1.60;;;;;;;6.38;100.00;98828.56;5204392;28;20483;-76
2021/03/13 05:53:19;;;;;;;4.28;1.90;;;;;;;6.45;100.00;98818.75;5204096;28;20040;-76
2021/03/13 05:55:52;;;;;;;5.68;2.08;;;;;;;6.37;100.00;98810.47;5204415;28;20084;-76
2021/03/13 05:58:23;;;;;;;3.28;2.05;;;;;;;6.32;100.00;98808.13;5204293;28;20056;-76
2021/03/13 06:00:54;;;;;;;6.30;1.90;;;;;;;6.41;100.00;98804.25;5204190;28;20602;-76
2021/03/13 06:03:24;;;;;;;2.92;1.80;;;;;;;6.33;100.00;98795.97;5204219;28;20025;-76
2021/03/13 06:05:54;;;;;;;2.13;1.50;;;;;;;6.30;100.00;98794.38;5209182;28;20036;-76
2021/03/13 06:08:25;;;;;;;4.45;1.80;;;;;;;6.31;100.00;98784.84;5204907;28;20609;-76
2021/03/13 06:10:56;;;;;;;3.25;1.70;;;;;;;6.32;100.00;98787.38;5209856;28;20037;-76
2021/03/13 06:13:26;;;;;;;2.65;1.55;;;;;;;6.25;100.00;98779.94;5216560;28;20026;-76
2021/03/13 06:15:57;;;;;;;4.05;1.90;;;;;;;6.30;100.00;98780.56;5203644;28;20033;-76
2021/03/13 06:18:49;;;;;;;4.10;1.70;;;;;;;6.21;100.00;98773.19;5204159;28;20033;-76
2021/03/13 06:21:32;;;;;;;3.22;1.70;;;;;;;6.31;100.00;98774.47;5202793;28;20033;-76
2021/03/13 06:24:15;;;;;;;3.92;1.73;;;;;;;6.33;100.00;98763.13;5200977;28;20052;-76
2021/03/13 06:26:49;;;;;;;4.15;1.52;;;;;;;6.28;100.00;98759.06;5203894;28;20502;-76
2021/03/13 06:29:20;;;;;;;3.15;1.77;;;;;;;6.30;100.00;98749.44;5203872;28;20117;-76
2021/03/13 06:32:11;;;;;;;4.10;1.48;;;;;;;6.32;100.00;98734.63;5203300;28;20486;-76
2021/03/13 06:34:41;;;;;;;3.47;1.55;;;;;;;6.29;100.00;98730.44;5203144;28;20079;-76
2021/03/13 06:37:25;;;;;;;3.47;1.60;;;;;;;6.33;100.00;98729.41;5203884;28;20041;-76
2021/03/13 06:39:56;;;;;;;3.22;1.50;;;;;;;6.26;100.00;98719.38;5202933;28;20030;-76
2021/03/13 06:42:29;;;;;;;3.45;1.55;;;;;;;6.32;100.00;98719.94;5203436;28;20448;-76
2021/03/13 06:45:07;;;;;;;3.28;1.77;;;;;;;6.40;100.00;98709.19;5202585;28;20517;-76
2021/03/13 06:47:40;;;;;;;2.30;1.38;;;;;;;6.44;100.00;98710.72;5202323;28;20113;-76
2021/03/13 06:50:22;;;;;;;4.30;1.60;;;;;;;6.55;100.00;98711.00;5202930;28;20276;-76
2021/03/13 06:53:07;;;;;;;3.40;1.30;;;;;;;6.54;100.00;98706.75;5202783;28;20044;-76
2021/03/13 06:55:37;;;;;;;1.55;0.88;;;;;;;6.61;100.00;98698.56;5203218;28;20021;-76
2021/03/13 06:58:10;;;;;;;2.67;1.27;;;;;;;6.64;100.00;98682.03;5199623;28;20130;-76
2021/03/13 07:00:44;;;;;;;2.38;1.00;;;;;;;6.63;100.00;98688.13;5206280;28;20029;-76
2021/03/13 07:03:15;;;;;;;3.30;1.27;;;;;;;6.64;100.00;98687.22;5210131;28;20040;-76
2021/03/13 07:05:45;;;;;;;2.13;1.20;;;;;;;6.67;100.00;98679.28;5208787;28;20017;-76
2021/03/13 07:08:26;;;;;;;3.22;1.30;;;;;;;6.75;100.00;98674.56;5207921;28;20590;-76
2021/03/13 07:11:02;;;;;;;2.00;1.20;;;;;;;6.64;100.00;98667.31;5204513;28;20037;-76
2021/03/13 07:13:40;;;;;;;2.97;1.10;;;;;;;6.64;100.00;98662.13;5208839;28;20093;-76
2021/03/13 07:16:26;;;;;;;1.50;1.02;;;;;;;6.74;100.00;98652.09;5201409;28;20033;-76
2021/03/13 07:19:00;;;;;;;2.33;0.90;;;;;;;6.69;100.00;98635.91;5211675;28;20052;-76
2021/03/13 07:21:32;;;;;;;1.38;0.90;;;;;;;6.71;100.00;98628.88;5202317;28;20025;-76
2021/03/13 07:24:05;;;;;;;2.15;0.93;;;;;;;6.69;100.00;98625.53;5207661;28;20029;-76
2021/03/13 07:26:40;;;;;;;2.90;1.00;;;;;;;6.69;100.00;98607.38;5212194;28;20048;-76
2021/03/13 07:29:12;;;;;;;1.67;0.90;;;;;;;6.74;100.00;98600.19;5201055;28;20403;-76
2021/03/13 07:31:49;;;;;;;3.42;0.95;;;;;;;6.72;100.00;98605.47;5201871;28;20119;-76
2021/03/13 07:34:23;;;;;;;1.90;0.90;;;;;;;6.70;100.00;98591.72;5206205;28;20531;-76
2021/03/13 07:36:57;;;;;;;1.80;0.82;;;;;;;6.64;100.00;98592.06;5205718;28;20031;-76
2021/03/13 07:39:45;;;;;;;1.00;0.70;;;;;;;6.71;100.00;98574.38;5209399;28;20029;-76
2021/03/13 07:42:20;;;;;;;1.48;0.68;;;;;;;6.75;100.00;98566.38;5210567;28;20030;-76
2021/03/13 07:44:51;;;;;;;1.10;0.60;;;;;;;6.78;100.00;98562.78;5203746;28;20037;-76
2021/03/13 07:47:21;;;;;;;1.10;0.60;;;;;;;6.79;100.00;98564.47;5203947;28;20040;-76
2021/03/13 07:49:52;;;;;;;1.83;0.70;;;;;;;6.77;100.00;98556.72;5201764;28;20507;-76
2021/03/13 07:52:22;;;;;;;1.77;0.85;;;;;;;6.82;100.00;98557.34;5201534;28;20028;-76
2021/03/13 07:54:54;;;;;;;1.20;0.70;;;;;;;6.91;100.00;98548.25;5201730;28;20052;-76
2021/03/13 07:57:25;;;;;;;1.20;0.73;;;;;;;6.96;100.00;98541.03;5196953;28;20025;-76
2021/03/13 07:59:55;;;;;;;1.17;0.77;;;;;;;6.99;100.00;98546.06;5201684;28;20651;-76
2021/03/13 08:02:28;;;;;;;1.85;0.50;;;;;;;7.09;100.00;98535.09;5202268;28;20037;-76
2021/03/13 08:05:06;;;;;;;2.00;0.47;;;;;;;7.19;100.00;98525.03;5197834;28;20120;-76
2021/03/13 08:07:57;;;;;;;1.42;0.70;;;;;;;7.34;100.00;98522.47;5201498;28;20025;-76
2021/03/13 08:10:41;;;;;;;0.73;0.40;;;;;;;7.31;100.00;98515.66;5197373;28;20116;-76
2021/03/13 08:13:31;;;;;;;0.65;0.60;;;;;;;7.37;100.00;98502.31;5202004;28;20036;-76
2021/03/13 08:16:18;;;;;;;0.93;0.52;;;;;;;7.38;100.00;98511.78;5191195;28;20033;-76
2021/03/13 08:18:51;;;;;;;0.93;0.50;;;;;;;7.46;100.00;98509.63;5183677;28;20487;-76
2021/03/13 08:21:21;;;;;;;1.17;0.60;;;;;;;7.46;100.00;98496.63;5201598;28;20388;-76
2021/03/13 08:23:55;;;;;;;0.97;0.40;;;;;;;7.51;100.00;98488.56;5201248;28;20033;-76
2021/03/13 08:26:34;;;;;;;0.80;0.30;;;;;;;7.63;100.00;98491.31;5201025;28;20276;-76
2021/03/13 08:29:06;;;;;;;0.40;0.38;;;;;;;7.66;100.00;98488.53;5200781;28;20503;-76
2021/03/13 08:31:40;;;;;;;2.95;0.47;;;;;;;7.72;100.00;98482.97;5201108;28;20041;-76
2021/03/13 08:34:10;;;;;;;1.02;0.40;;;;;;;7.69;100.00;98470.16;5201119;28;20036;-76
2021/03/13 08:36:47;;;;;;;1.90;0.60;;;;;;;7.85;100.00;98447.53;5200918;28;20017;-76
2021/03/13 08:39:19;;;;;;;0.80;0.32;;;;;;;7.84;100.00;98435.47;5201481;28;20284;-76
2021/03/13 08:41:55;;;;;;;0.57;0.25;;;;;;;7.93;100.00;98436.69;5200976;28;20048;-76
2021/03/13 08:44:25;;;;;;;1.13;0.30;;;;;;;7.98;100.00;98434.66;5199383;28;20169;-76
2021/03/13 08:46:59;;;;;;;0.67;0.30;;;;;;;8.02;100.00;98423.97;5206717;28;20547;-76
2021/03/13 08:49:30;;;;;;;0.50;0.30;;;;;;;8.10;100.00;98415.72;5196997;28;20280;-76
2021/03/13 08:52:09;;;;;;;0.63;0.40;;;;;;;8.23;100.00;98408.88;5201197;28;20037;-76
2021/03/13 08:54:46;;;;;;;2.13;0.63;;;;;;;8.18;100.00;98401.34;5201066;28;20032;-76
2021/03/13 08:57:25;;;;;;;1.10;0.30;;;;;;;8.36;100.00;98397.63;5199833;28;20045;-75
2021/03/13 08:59:55;;;;;;;2.63;0.50;;;;;;;8.58;99.07;98391.94;5206095;28;20021;-76
2021/03/13 09:02:28;;;;;;;3.22;0.40;;;;;;;8.78;99.95;98394.13;5213630;28;20022;-76
2021/03/13 09:05:05;;;;;;;0.82;0.30;;;;;;;8.93;97.74;98378.34;5205516;28;20061;-76
2021/03/13 09:07:36;;;;;;;0.50;0.22;;;;;;;9.07;97.17;98370.50;5201149;28;20033;-76
2021/03/13 09:10:07;;;;;;;0.85;0.40;;;;;;;9.03;95.72;98379.44;5205371;28;20037;-76
2021/03/13 09:12:40;;;;;;;1.75;0.40;;;;;;;9.09;96.53;98379.03;5204452;28;20030;-76
2021/03/13 09:15:12;;;;;;;0.50;0.30;;;;;;;9.14;96.21;98366.56;5204550;28;20850;-76
2021/03/13 09:17:42;;;;;;;1.58;0.40;;;;;;;9.04;95.36;98380.28;5208895;28;20064;-76
2021/03/13 09:20:16;;;;;;;1.95;0.35;;;;;;;9.01;95.39;98364.84;5213385;28;20455;-76
2021/03/13 09:22:48;;;;;;;1.17;0.30;;;;;;;9.08;95.16;98371.34;5215408;28;20021;-76
2021/03/13 09:25:22;;;;;;;1.45;0.40;;;;;;;9.19;95.74;98354.06;5207222;28;20533;-76
2021/03/13 09:27:52;;;;;;;1.60;0.30;;;;;;;9.12;95.74;98358.03;5212385;28;20032;-76
2021/03/13 09:30:24;;;;;;;2.45;0.50;;;;;;;9.14;95.34;98356.16;5204766;28;20232;-76
2021/03/13 09:32:55;;;;;;;1.17;0.50;;;;;;;9.23;96.21;98340.75;5200432;28;20037;-76
2021/03/13 09:35:26;;;;;;;1.25;0.30;;;;;;;9.54;94.07;98334.31;5204670;28;20067;-76
2021/03/13 09:37:57;;;;;;;2.08;0.45;;;;;;;9.76;93.24;98319.75;5216661;28;20016;-76
2021/03/13 09:40:27;;;;;;;1.70;0.40;;;;;;;9.98;91.87;98321.72;5214389;28;20079;-76
2021/03/13 09:42:57;;;;;;;0.60;0.38;;;;;;;10.08;91.03;98309.72;5216904;28;20037;-76
2021/03/13 09:45:28;;;;;;;1.88;0.40;;;;;;;10.56;88.92;98311.50;5192798;28;20107;-76
2021/03/13 09:48:00;;;;;;;0.55;0.20;;;;;;;10.72;87.50;98310.25;5216904;28;20025;-76
2021/03/13 09:50:32;;;;;;;2.85;0.35;;;;;;;11.02;86.21;98313.25;5200516;28;20037;-76
2021/03/13 09:53:06;;;;;;;0.82;0.30;;;;;;;11.30;85.34;98295.41;5199132;28;20083;-76
2021/03/13 09:55:38;;;;;;;1.40;0.47;;;;;;;11.49;85.67;98293.13;5202035;28;20029;-76
2021/03/13 09:58:08;;;;;;;2.72;0.47;;;;;;;11.71;85.11;98285.34;5201566;28;20680;-76
2021/03/13 10:00:40;;;;;;;1.90;0.52;;;;;;;11.75;85.14;98273.66;5204179;28;20042;-76
2021/03/13 10:03:13;;;;;;;1.23;0.45;;;;;;;11.96;84.62;98292.94;5201585;28;20112;-76
2021/03/13 10:05:43;;;;;;;1.98;0.38;;;;;;;11.95;83.38;98293.09;5204421;28;20118;-76
2021/03/13 10:08:14;;;;;;;1.42;0.38;;;;;;;11.60;82.91;98287.91;5201258;28;20029;-76
2021/03/13 10:10:47;;;;;;;1.23;0.40;;;;;;;11.41;83.98;98295.47;5201505;28;20041;-76
2021/03/13 10:13:18;;;;;;;1.50;0.40;;;;;;;10.97;84.18;98296.25;5202870;28;20116;-76
2021/03/13 10:15:48;;;;;;;2.03;0.60;;;;;;;10.80;86.82;98304.47;5199554;28;20108;-76
2021/03/13 10:18:20;;;;;;;2.13;0.50;;;;;;;10.53;88.34;98307.31;5192154;28;20021;-76
2021/03/13 10:20:50;;;;;;;1.40;0.40;;;;;;;10.14;92.01;98317.16;5201434;28;20037;-75
2021/03/13 10:23:23;;;;;;;1.73;0.45;;;;;;;9.89;92.21;98324.94;5201207;28;20029;-76
2021/03/13 10:26:08;;;;;;;1.38;0.40;;;;;;;9.80;93.81;98342.06;5200798;28;20061;-76
2021/03/13 10:28:44;;;;;;;2.83;0.50;;;;;;;9.44;97.20;98374.97;5201909;28;20026;-76
2021/03/13 10:31:22;;;;;;;;;;;;;;;9.24;100.00;98425.81;5201003;28;20079;-76
2021/03/13 10:33:53;;;;;;;2.60;0.65;;;;;;;8.40;100.00;98430.34;5201653;28;19944;-76
2021/03/13 10:36:56;;;;;;;2.20;0.82;;;;;;;7.42;100.00;98406.78;5198139;28;20079;-76
2021/03/13 10:39:26;;;;;;;1.55;0.47;;;;;;;7.45;100.00;98401.41;5163711;28;20406;-76
2021/03/13 10:42:00;;;;;;;3.30;0.70;;;;;;;7.31;100.00;98408.31;5202684;28;20031;-76
2021/03/13 10:44:31;;;;;;;4.00;0.73;;;;;;;7.30;98.00;98378.91;5201276;28;20055;-76
2021/03/13 10:47:03;;;;;;;6.38;0.88;;;;;;;7.35;98.46;98374.28;5212543;28;20028;-76
2021/03/13 10:49:34;;;;;;;6.32;0.98;;;;;;;7.41;97.40;98381.72;5195755;28;20032;-76
2021/03/13 10:52:05;;;;;;;5.00;1.00;;;;;;;7.67;94.49;98378.44;5200722;28;20443;-76
2021/03/13 10:54:35;;;;;;;5.70;1.20;;;;;;;7.81;94.77;98382.81;5214365;28;20079;-76
2021/03/13 10:57:06;;;;;;;5.43;0.90;;;;;;;7.87;93.04;98385.88;5204491;28;20130;-76
2021/03/13 10:59:37;;;;;;;3.92;1.05;;;;;;;7.94;93.29;98376.81;5212867;28;20028;-76
2021/03/13 11:02:07;;;;;;;7.63;1.23;;;;;;;7.93;88.93;98371.69;5209317;28;20037;-76
2021/03/13 11:04:38;;;;;;;3.60;0.90;;;;;;;8.13;88.97;98373.91;5215761;28;20020;-76
2021/03/13 11:07:08;;;;;;;4.65;1.00;;;;;;;8.23;88.56;98365.47;5200039;28;20514;-76
2021/03/13 11:09:38;;;;;;;6.93;1.10;;;;;;;8.22;88.15;98366.41;5200591;28;20041;-76
2021/03/13 11:12:09;;;;;;;7.57;1.42;;;;;;;8.33;88.45;98382.22;5199520;28;20056;-76
2021/03/13 11:14:39;;;;;;;4.72;1.20;;;;;;;8.17;87.38;98376.25;5200627;28;20029;-76
2021/03/13 11:17:10;;;;;;;5.65;1.30;;;;;;;8.19;89.01;98384.81;5212862;28;20074;-76
2021/03/13 11:19:40;;;;;;;5.55;1.13;;;;;;;8.40;88.51;98380.88;5212651;28;20491;-76
2021/03/13 11:22:10;;;;;;;5.28;1.30;;;;;;;8.35;86.62;98377.75;5201474;28;20037;-76
2021/03/13 11:24:41;;;;;;;12.07;1.60;;;;;;;8.29;85.74;98380.75;5201231;28;20033;-76
2021/03/13 11:27:11;;;;;;;5.70;1.08;;;;;;;8.34;86.28;98378.69;5200015;28;20183;-76
2021/03/13 11:29:42;;;;;;;7.78;1.52;;;;;;;8.42;85.50;98370.41;5200296;28;20591;-76
2021/03/13 11:32:14;;;;;;;8.43;2.00;;;;;;;8.43;86.94;98367.72;5208208;28;20186;-76
2021/03/13 11:34:44;;;;;;;9.93;1.90;;;;;;;8.79;86.46;98364.56;5209231;28;20081;-76
2021/03/13 11:37:14;;;;;;;8.15;1.60;;;;;;;8.87;85.52;98373.53;5179344;28;20754;-76
2021/03/13 11:39:44;;;;;;;9.10;1.90;;;;;;;8.82;84.77;98365.19;5180399;28;20041;-75
2021/03/13 11:42:15;;;;;;;8.32;2.22;;;;;;;8.83;83.40;98366.88;5179204;28;20112;-76
2021/03/13 11:44:45;;;;;;;10.82;1.88;;;;;;;8.78;84.55;98358.53;5180264;28;20025;-76
2021/03/13 11:47:15;;;;;;;10.27;1.60;;;;;;;8.70;84.09;98354.72;5190143;28;20618;-76
2021/03/13 11:49:45;;;;;;;7.97;1.10;;;;;;;8.76;83.97;98352.53;5197816;28;20033;-76
2021/03/13 11:52:19;;;;;;;5.22;1.10;;;;;;;8.77;84.10;98341.22;5199701;28;20042;-76
2021/03/13 11:54:50;;;;;;;5.22;1.35;;;;;;;8.64;83.62;98335.13;5200451;28;20485;-76
2021/03/13 11:57:20;;;;;;;10.23;1.60;;;;;;;8.56;86.05;98337.38;5199358;28;20634;-76
2021/03/13 11:59:51;;;;;;;5.68;1.40;;;;;;;8.56;86.04;98333.94;5200523;28;20037;-76
2021/03/13 12:02:21;;;;;;;7.20;1.13;;;;;;;8.56;84.72;98342.56;5199320;28;20041;-76
2021/03/13 12:04:51;;;;;;;5.60;1.20;;;;;;;8.51;85.29;98331.63;5203925;28;20106;-76
2021/03/13 12:07:22;;;;;;;5.63;0.85;;;;;;;8.65;84.85;98342.00;5207035;28;20034;-76